createdAt,value
2017-12-02T00:01:19.192Z,28.03
2017-12-02T00:03:46.896Z,26.20
2017-12-02T00:06:15.256Z,29.70
2017-12-02T00:08:42.864Z,30.70
2017-12-02T00:11:10.449Z,30.80
2017-12-02T00:13:38.064Z,28.90
2017-12-02T00:16:06.424Z,29.30
2017-12-02T00:18:34.035Z,28.13
2017-12-02T00:21:01.657Z,23.70
2017-12-02T00:23:29.316Z,21.53
2017-12-02T00:25:56.900Z,26.80
2017-12-02T00:28:25.292Z,26.73
2017-12-02T00:30:52.880Z,22.10
2017-12-02T00:33:20.584Z,27.87
2017-12-02T00:35:48.244Z,26.87
2017-12-02T00:38:15.837Z,24.70
2017-12-02T00:40:43.448Z,24.83
2017-12-02T00:43:11.041Z,25.70
2017-12-02T00:45:39.424Z,22.03
2017-12-02T00:48:07.780Z,20.40
2017-12-02T00:50:36.155Z,29.73
2017-12-02T00:53:03.740Z,25.00
2017-12-02T00:55:32.213Z,20.00
2017-12-02T00:57:59.803Z,24.30
2017-12-02T01:00:27.412Z,21.30
2017-12-02T01:02:55.005Z,17.17
2017-12-02T01:05:23.383Z,19.00
2017-12-02T01:07:50.968Z,20.67
2017-12-02T01:10:18.576Z,26.27
2017-12-02T01:12:46.256Z,17.10
2017-12-02T01:15:13.848Z,24.13
2017-12-02T01:17:42.232Z,21.40
2017-12-02T01:20:09.860Z,21.07
2017-12-02T01:22:37.473Z,21.30
2017-12-02T01:25:05.065Z,20.83
2017-12-02T01:27:32.684Z,24.83
2017-12-02T01:30:00.272Z,21.40
2017-12-02T01:32:27.880Z,22.77
2017-12-02T01:34:56.242Z,20.30
2017-12-02T01:37:23.853Z,21.97
2017-12-02T01:39:51.445Z,23.50
2017-12-02T01:42:19.052Z,23.40
2017-12-02T01:44:47.492Z,22.33
2017-12-02T01:47:15.113Z,19.40
2017-12-02T01:49:42.740Z,21.70
2017-12-02T01:52:10.410Z,22.60
2017-12-02T01:54:38.884Z,20.13
2017-12-02T01:57:06.540Z,22.00
2017-12-02T01:59:34.204Z,19.97
2017-12-02T02:02:02.697Z,22.97
2017-12-02T02:04:30.311Z,29.33
2017-12-02T02:06:57.916Z,31.17
2017-12-02T02:09:25.576Z,22.13
2017-12-02T02:11:53.241Z,22.77
2017-12-02T02:14:20.904Z,21.23
2017-12-02T02:16:48.496Z,21.00
2017-12-02T02:19:16.119Z,19.83
2017-12-02T02:21:43.771Z,21.33
2017-12-02T02:24:11.375Z,21.33
2017-12-02T02:26:39.833Z,22.90
2017-12-02T02:29:08.968Z,17.70
2017-12-02T02:31:36.560Z,18.67
2017-12-02T02:34:04.184Z,18.93
2017-12-02T02:36:31.807Z,17.70
2017-12-02T02:38:59.473Z,18.87
2017-12-02T02:41:27.132Z,20.90
2017-12-02T02:43:54.715Z,24.73
2017-12-02T02:46:23.097Z,19.53
2017-12-02T02:48:51.449Z,17.13
2017-12-02T02:51:19.115Z,13.73
2017-12-02T02:53:46.784Z,15.50
2017-12-02T02:56:14.436Z,17.77
2017-12-02T02:58:42.032Z,18.63
2017-12-02T03:01:10.493Z,19.43
2017-12-02T03:03:38.084Z,13.63
2017-12-02T03:06:05.687Z,14.33
2017-12-02T03:08:33.367Z,18.17
2017-12-02T03:11:01.040Z,15.63
2017-12-02T03:13:29.397Z,18.30
2017-12-02T03:15:57.076Z,15.57
2017-12-02T03:18:24.744Z,14.27
2017-12-02T03:20:52.408Z,15.80
2017-12-02T03:23:20.029Z,13.93
2017-12-02T03:25:47.728Z,15.73
2017-12-02T03:28:15.339Z,16.07
2017-12-02T03:30:42.958Z,14.83
2017-12-02T03:33:10.617Z,12.27
2017-12-02T03:35:38.212Z,13.33
2017-12-02T03:38:05.835Z,13.53
2017-12-02T03:40:33.428Z,17.50
2017-12-02T03:43:01.806Z,11.40
2017-12-02T03:45:30.259Z,11.80
2017-12-02T03:47:57.883Z,11.67
2017-12-02T03:50:25.484Z,12.20
2017-12-02T03:52:53.155Z,12.97
2017-12-02T03:55:21.542Z,12.77
2017-12-02T03:57:49.896Z,17.37
2017-12-02T04:00:17.503Z,11.43
2017-12-02T04:02:45.084Z,14.03
2017-12-02T04:05:12.696Z,13.97
2017-12-02T04:07:40.288Z,15.60
2017-12-02T04:10:07.911Z,13.10
2017-12-02T04:12:35.496Z,16.73
2017-12-02T04:15:03.876Z,12.40
2017-12-02T04:17:32.237Z,14.43
2017-12-02T04:19:59.896Z,18.37
2017-12-02T04:22:27.552Z,13.20
2017-12-02T04:24:55.162Z,13.63
2017-12-02T04:27:22.784Z,15.33
2017-12-02T04:29:51.908Z,15.43
2017-12-02T04:32:19.496Z,11.43
2017-12-02T04:34:47.084Z,13.53
2017-12-02T04:37:14.759Z,12.63
2017-12-02T04:39:42.345Z,10.77
2017-12-02T04:42:10.795Z,12.10
2017-12-02T04:44:38.375Z,12.37
2017-12-02T04:47:06.029Z,11.00
2017-12-02T04:49:33.691Z,16.67
2017-12-02T04:52:02.806Z,10.50
2017-12-02T04:54:31.156Z,13.70
2017-12-02T04:56:58.832Z,11.77
2017-12-02T04:59:26.427Z,11.37
2017-12-02T05:01:54.048Z,12.13
2017-12-02T05:04:21.720Z,10.07
2017-12-02T05:06:49.308Z,15.77
2017-12-02T05:09:17.688Z,12.23
2017-12-02T05:11:45.267Z,12.53
2017-12-02T05:14:12.867Z,11.10
2017-12-02T05:16:40.454Z,11.80
2017-12-02T05:19:08.915Z,14.40
2017-12-02T05:21:36.575Z,11.70
2017-12-02T05:24:04.240Z,12.43
2017-12-02T05:26:31.832Z,13.57
2017-12-02T05:29:00.207Z,12.70
2017-12-02T05:31:28.555Z,12.20
2017-12-02T05:33:56.234Z,17.03
2017-12-02T05:36:23.883Z,13.00
2017-12-02T05:38:51.548Z,12.10
2017-12-02T05:41:19.215Z,11.17
2017-12-02T05:43:46.875Z,11.93
2017-12-02T05:46:14.549Z,15.83
2017-12-02T05:48:42.140Z,11.90
2017-12-02T05:51:09.772Z,10.17
2017-12-02T05:53:37.433Z,14.03
2017-12-02T05:56:05.083Z,9.53
2017-12-02T05:58:32.756Z,9.97
2017-12-02T06:01:00.415Z,11.40
2017-12-02T06:03:28.000Z,10.20
2017-12-02T06:05:56.381Z,10.40
2017-12-02T06:08:24.723Z,9.50
2017-12-02T06:10:52.327Z,9.53
2017-12-02T06:13:20.680Z,8.80
2017-12-02T06:15:48.289Z,8.50
2017-12-02T06:18:15.882Z,10.07
2017-12-02T06:20:43.496Z,8.80
2017-12-02T06:23:11.081Z,11.67
2017-12-02T06:25:38.654Z,8.83
2017-12-02T06:28:06.339Z,9.07
2017-12-02T06:30:33.949Z,13.73
2017-12-02T06:33:01.556Z,10.80
2017-12-02T06:35:29.168Z,11.17
2017-12-02T06:37:56.792Z,10.50
2017-12-02T06:40:24.375Z,10.63
2017-12-02T06:42:52.744Z,11.67
2017-12-02T06:45:20.395Z,9.20
2017-12-02T06:47:48.004Z,12.80
2017-12-02T06:50:15.588Z,11.37
2017-12-02T06:52:43.200Z,10.90
2017-12-02T06:55:11.670Z,11.60
2017-12-02T06:57:39.288Z,20.33
2017-12-02T07:00:06.987Z,11.60
2017-12-02T07:02:34.582Z,16.30
2017-12-02T07:05:02.188Z,10.80
2017-12-02T07:07:29.771Z,11.43
2017-12-02T07:09:57.384Z,10.57
2017-12-02T07:12:24.971Z,13.00
2017-12-02T07:14:52.584Z,13.27
2017-12-02T07:17:20.931Z,15.33
2017-12-02T07:19:48.526Z,9.37
2017-12-02T07:22:16.877Z,10.03
2017-12-02T07:24:44.494Z,11.27
2017-12-02T07:27:12.084Z,10.10
2017-12-02T07:29:39.761Z,10.73
2017-12-02T07:32:07.419Z,12.30
2017-12-02T07:34:35.092Z,13.40
2017-12-02T07:37:02.751Z,13.03
2017-12-02T07:39:30.417Z,9.67
2017-12-02T07:41:58.030Z,11.13
2017-12-02T07:44:25.616Z,13.17
2017-12-02T07:46:53.295Z,16.10
2017-12-02T07:49:22.501Z,10.80
2017-12-02T07:51:50.223Z,13.60
2017-12-02T07:54:17.820Z,10.03
2017-12-02T07:56:45.485Z,10.47
2017-12-02T07:59:13.070Z,10.27
2017-12-02T08:01:41.443Z,10.80
2017-12-02T08:04:09.911Z,9.13
2017-12-02T08:06:37.516Z,14.90
2017-12-02T08:09:05.129Z,9.23
2017-12-02T08:11:34.248Z,20.03
2017-12-02T08:14:02.701Z,11.17
2017-12-02T08:16:30.289Z,12.23
2017-12-02T08:18:58.752Z,12.17
2017-12-02T08:21:26.412Z,10.27
2017-12-02T08:23:54.029Z,12.27
2017-12-02T08:26:21.636Z,15.60
2017-12-02T08:28:49.249Z,14.73
2017-12-02T08:31:16.832Z,19.90
2017-12-02T08:33:44.444Z,16.50
2017-12-02T08:36:12.900Z,12.63
2017-12-02T08:38:40.510Z,10.37
2017-12-02T08:41:08.127Z,13.87
2017-12-02T08:43:35.742Z,12.67
2017-12-02T08:46:03.352Z,11.33
2017-12-02T08:48:30.959Z,9.07
2017-12-02T08:50:58.535Z,9.47
2017-12-02T08:53:26.139Z,14.20
2017-12-02T08:55:53.797Z,10.83
2017-12-02T08:58:21.415Z,12.33
2017-12-02T09:00:49.000Z,16.10
2017-12-02T09:03:16.607Z,11.27
2017-12-02T09:05:44.957Z,12.90
2017-12-02T09:08:12.551Z,11.80
2017-12-02T09:10:40.160Z,9.83
2017-12-02T09:13:07.748Z,11.90
2017-12-02T09:15:35.361Z,10.50
2017-12-02T09:18:02.969Z,17.63
2017-12-02T09:20:30.580Z,13.50
2017-12-02T09:22:58.187Z,8.87
2017-12-02T09:25:25.844Z,11.90
2017-12-02T09:27:53.433Z,10.77
2017-12-02T09:30:21.814Z,13.80
2017-12-02T09:32:50.263Z,14.60
2017-12-02T09:35:18.640Z,12.57
2017-12-02T09:37:46.234Z,14.53
2017-12-02T09:40:14.613Z,11.20
2017-12-02T09:42:43.076Z,9.27
2017-12-02T09:45:10.730Z,12.67
2017-12-02T09:47:38.316Z,12.37
2017-12-02T09:50:06.667Z,14.47
2017-12-02T09:52:34.281Z,13.27
2017-12-02T09:55:01.861Z,13.43
2017-12-02T09:57:29.467Z,14.50
2017-12-02T09:59:58.665Z,18.90
2017-12-02T10:02:26.386Z,11.90
2017-12-02T10:04:53.965Z,13.33
2017-12-02T10:07:21.609Z,15.30
2017-12-02T10:09:49.194Z,13.13
2017-12-02T10:12:16.804Z,16.00
2017-12-02T10:14:44.431Z,15.03
2017-12-02T10:17:13.695Z,13.77
2017-12-02T10:19:41.277Z,16.30
2017-12-02T10:22:08.883Z,15.63
2017-12-02T10:24:37.240Z,17.33
2017-12-02T10:27:05.615Z,19.17
2017-12-02T10:29:33.999Z,17.10
2017-12-02T10:32:03.208Z,15.10
2017-12-02T10:34:31.569Z,16.50
2017-12-02T10:36:59.190Z,14.17
2017-12-02T10:39:26.773Z,11.53
2017-12-02T10:41:54.383Z,9.60
2017-12-02T10:44:22.729Z,11.37
2017-12-02T10:46:50.308Z,9.10
2017-12-02T10:49:18.687Z,8.70
2017-12-02T10:51:47.156Z,9.70
2017-12-02T10:54:14.753Z,9.73
2017-12-02T10:56:42.382Z,11.50
2017-12-02T10:59:09.984Z,11.27
2017-12-02T11:01:37.605Z,7.97
2017-12-02T11:04:06.088Z,8.50
2017-12-02T11:06:33.662Z,8.30
2017-12-02T11:09:02.191Z,13.70
2017-12-02T11:11:29.804Z,42.35
2017-12-02T11:13:58.267Z,9.50
2017-12-02T11:16:25.843Z,8.10
2017-12-02T11:18:54.307Z,10.90
2017-12-02T11:21:21.971Z,10.13
2017-12-02T11:23:49.640Z,10.63
2017-12-02T11:26:17.303Z,14.30
2017-12-02T11:28:44.968Z,11.43
2017-12-02T11:31:14.068Z,13.53
2017-12-02T11:33:42.444Z,11.37
2017-12-02T11:36:10.108Z,12.50
2017-12-02T11:38:39.192Z,12.77
2017-12-02T11:41:08.395Z,24.80
2017-12-02T11:43:35.980Z,9.00
2017-12-02T11:46:04.479Z,21.53
2017-12-02T11:48:32.104Z,15.97
2017-12-02T11:50:59.771Z,10.00
2017-12-02T11:53:28.856Z,10.23
2017-12-02T11:55:56.475Z,9.77
2017-12-02T11:58:24.094Z,9.83
2017-12-02T12:00:53.213Z,11.90
2017-12-02T12:03:21.561Z,10.20
2017-12-02T12:05:50.043Z,10.73
2017-12-02T12:08:17.708Z,8.60
2017-12-02T12:10:46.087Z,8.53
2017-12-02T12:13:15.280Z,12.03
2017-12-02T12:15:42.875Z,8.57
2017-12-02T12:18:11.323Z,8.17
2017-12-02T12:20:38.924Z,8.70
2017-12-02T12:23:06.547Z,20.57
2017-12-02T12:25:34.212Z,8.43
2017-12-02T12:28:02.597Z,7.43
2017-12-02T12:30:31.736Z,13.80
2017-12-02T12:32:59.346Z,9.70
2017-12-02T12:35:28.453Z,7.63
2017-12-02T12:37:56.107Z,11.10
2017-12-02T12:40:23.776Z,6.97
2017-12-02T12:42:51.384Z,10.00
2017-12-02T12:45:18.965Z,12.23
2017-12-02T12:47:46.661Z,8.83
2017-12-02T12:50:15.852Z,8.00
2017-12-02T12:52:43.528Z,7.10
2017-12-02T12:55:12.620Z,8.07
2017-12-02T12:57:40.281Z,10.03
2017-12-02T13:00:07.864Z,9.27
2017-12-02T13:02:36.235Z,10.10
2017-12-02T13:05:04.588Z,8.90
2017-12-02T13:07:32.196Z,9.17
2017-12-02T13:09:59.780Z,11.00
2017-12-02T13:12:27.384Z,9.73
2017-12-02T13:14:55.048Z,9.57
2017-12-02T13:17:22.708Z,7.83
2017-12-02T13:19:50.310Z,7.23
2017-12-02T13:22:17.895Z,7.50
2017-12-02T13:24:45.491Z,16.70
2017-12-02T13:27:13.076Z,10.03
2017-12-02T13:29:41.531Z,10.23
2017-12-02T13:32:09.111Z,10.70
2017-12-02T13:34:37.484Z,13.10
2017-12-02T13:37:05.840Z,13.00
2017-12-02T13:39:33.448Z,12.77
2017-12-02T13:42:01.895Z,13.60
2017-12-02T13:44:29.516Z,13.17
2017-12-02T13:46:57.100Z,11.07
2017-12-02T13:49:25.300Z,12.30
2017-12-02T13:51:52.911Z,13.90
2017-12-02T13:54:20.504Z,20.70
2017-12-02T13:56:48.183Z,16.67
2017-12-02T13:59:15.839Z,19.40
2017-12-02T14:01:44.303Z,18.00
2017-12-02T14:04:11.993Z,19.50
2017-12-02T14:06:39.657Z,16.27
2017-12-02T14:09:07.320Z,20.33
2017-12-02T14:11:36.440Z,19.60
2017-12-02T14:14:04.792Z,14.57
2017-12-02T14:16:32.452Z,16.00
2017-12-02T14:19:00.120Z,20.43
2017-12-02T14:21:27.730Z,17.83
2017-12-02T14:23:55.307Z,16.70
2017-12-02T14:26:22.896Z,12.43
2017-12-02T14:28:50.513Z,21.10
2017-12-02T14:31:18.128Z,26.03
2017-12-02T14:33:45.779Z,20.33
2017-12-02T14:36:13.448Z,18.13
2017-12-02T14:38:41.064Z,17.27
2017-12-02T14:41:08.671Z,20.17
2017-12-02T14:43:36.291Z,16.07
2017-12-02T14:46:03.896Z,12.77
2017-12-02T14:48:31.565Z,12.73
2017-12-02T14:50:59.219Z,11.83
2017-12-02T14:53:28.421Z,12.30
2017-12-02T14:55:56.060Z,12.23
2017-12-02T14:58:23.753Z,15.87
2017-12-02T15:00:51.408Z,11.80
2017-12-02T15:03:20.504Z,13.93
2017-12-02T15:05:48.103Z,19.53
2017-12-02T15:08:15.692Z,14.83
2017-12-02T15:10:43.384Z,13.77
2017-12-02T15:13:11.014Z,13.90
2017-12-02T15:15:38.716Z,12.20
2017-12-02T15:18:06.388Z,17.77
2017-12-02T15:20:33.999Z,15.13
2017-12-02T15:23:01.666Z,16.10
2017-12-02T15:25:29.275Z,16.03
2017-12-02T15:27:57.632Z,13.20
2017-12-02T15:30:25.265Z,16.30
2017-12-02T15:32:52.859Z,12.70
2017-12-02T15:35:20.541Z,15.00
2017-12-02T15:37:48.132Z,12.87
2017-12-02T15:40:15.846Z,11.37
2017-12-02T15:42:43.432Z,15.47
2017-12-02T15:45:11.905Z,15.57
2017-12-02T15:47:39.561Z,15.77
2017-12-02T15:50:07.232Z,14.57
2017-12-02T15:52:35.609Z,12.67
2017-12-02T15:55:03.195Z,15.33
2017-12-02T15:57:31.573Z,23.53
2017-12-02T15:59:59.944Z,13.47
2017-12-02T16:02:28.324Z,16.03
2017-12-02T16:04:56.779Z,22.80
2017-12-02T16:07:24.473Z,19.33
2017-12-02T16:09:52.832Z,16.03
2017-12-02T16:12:20.446Z,15.00
2017-12-02T16:14:48.048Z,20.90
2017-12-02T16:17:15.649Z,24.20
2017-12-02T16:19:43.371Z,35.60
2017-12-02T16:22:11.040Z,26.03
2017-12-02T16:24:38.700Z,45.30
2017-12-02T16:27:06.366Z,39.13
2017-12-02T16:29:33.971Z,29.30
2017-12-02T16:32:01.583Z,24.63
2017-12-02T16:34:29.248Z,21.60
2017-12-02T16:36:56.840Z,23.40
2017-12-02T16:39:25.224Z,23.70
2017-12-02T16:41:52.812Z,26.80
2017-12-02T16:44:20.522Z,23.40
2017-12-02T16:46:48.108Z,29.13
2017-12-02T16:49:16.564Z,27.13
2017-12-02T16:51:44.147Z,28.87
2017-12-02T16:54:12.495Z,22.33
2017-12-02T16:56:41.607Z,18.90
2017-12-02T16:59:10.135Z,22.60
2017-12-02T17:01:37.845Z,21.63
2017-12-02T17:04:06.950Z,22.83
2017-12-02T17:06:35.419Z,16.70
2017-12-02T17:09:03.052Z,19.17
2017-12-02T17:11:30.749Z,22.77
2017-12-02T17:13:58.399Z,20.97
2017-12-02T17:16:26.004Z,19.50
2017-12-02T17:18:53.636Z,25.80
2017-12-02T17:21:21.250Z,21.57
2017-12-02T17:23:48.841Z,19.23
2017-12-02T17:26:16.521Z,12.80
2017-12-02T17:28:44.111Z,17.20
2017-12-02T17:31:12.457Z,13.60
2017-12-02T17:33:40.184Z,14.67
2017-12-02T17:36:07.889Z,14.23
2017-12-02T17:38:35.501Z,15.17
2017-12-02T17:41:03.089Z,16.47
2017-12-02T17:43:30.705Z,14.33
2017-12-02T17:45:58.293Z,13.17
2017-12-02T17:48:25.992Z,9.50
2017-12-02T17:50:53.571Z,14.60
2017-12-02T17:53:22.041Z,18.03
2017-12-02T17:55:49.637Z,13.20
2017-12-02T17:58:17.243Z,12.27
2017-12-02T18:00:44.923Z,11.30
2017-12-02T18:03:13.408Z,10.00
2017-12-02T18:05:40.995Z,8.37
2017-12-02T18:08:09.452Z,11.80
2017-12-02T18:10:37.051Z,8.20
2017-12-02T18:13:04.636Z,11.90
2017-12-02T18:15:32.245Z,11.17
2017-12-02T18:18:00.601Z,11.13
2017-12-02T18:20:28.274Z,13.53
2017-12-02T18:22:55.939Z,9.80
2017-12-02T18:25:23.554Z,14.67
2017-12-02T18:27:51.151Z,10.70
2017-12-02T18:30:18.760Z,27.77
2017-12-02T18:32:46.349Z,15.77
2017-12-02T18:35:13.956Z,10.97
2017-12-02T18:37:42.309Z,19.00
2017-12-02T18:40:09.924Z,16.70
2017-12-02T18:42:37.512Z,16.80
2017-12-02T18:45:05.201Z,14.17
2017-12-02T18:47:32.783Z,15.43
2017-12-02T18:50:01.247Z,14.73
2017-12-02T18:52:28.912Z,18.10
2017-12-02T18:54:56.496Z,14.93
2017-12-02T18:57:24.873Z,15.90
2017-12-02T18:59:53.332Z,13.97
2017-12-02T19:02:20.996Z,15.17
2017-12-02T19:04:50.096Z,13.73
2017-12-02T19:07:17.699Z,15.83
2017-12-02T19:09:45.320Z,15.90
2017-12-02T19:12:12.932Z,15.40
2017-12-02T19:14:40.520Z,15.77
2017-12-02T19:17:08.130Z,17.60
2017-12-02T19:19:36.489Z,20.43
2017-12-02T19:22:04.148Z,18.37
2017-12-02T19:24:31.812Z,20.40
2017-12-02T19:26:59.419Z,15.10
2017-12-02T19:29:27.031Z,17.27
2017-12-02T19:31:55.436Z,21.37
2017-12-02T19:34:23.052Z,17.42
2017-12-02T19:36:50.697Z,20.58
2017-12-02T19:39:18.316Z,20.10
2017-12-02T19:41:45.948Z,15.43
2017-12-02T19:44:13.547Z,23.13
2017-12-02T19:46:41.164Z,23.45
2017-12-02T19:49:09.576Z,20.55
2017-12-02T19:51:37.192Z,23.08
2017-12-02T19:54:04.892Z,19.87
2017-12-02T19:56:33.273Z,22.20
2017-12-02T19:59:00.880Z,17.70
2017-12-02T20:01:28.502Z,15.30
2017-12-02T20:03:56.907Z,16.97
2017-12-02T20:06:24.634Z,17.27
2017-12-02T20:08:52.296Z,19.37
2017-12-02T20:11:19.887Z,18.43
2017-12-02T20:13:47.528Z,19.15
2017-12-02T20:16:15.890Z,19.10
2017-12-02T20:18:43.549Z,20.73
2017-12-02T20:21:11.126Z,17.50
2017-12-02T20:23:38.740Z,19.43
2017-12-02T20:26:06.450Z,18.08
2017-12-02T20:28:34.123Z,19.00
2017-12-02T20:31:03.089Z,24.30
2017-12-02T20:33:30.768Z,21.10
2017-12-02T20:35:58.436Z,19.63
2017-12-02T20:38:26.097Z,19.80
2017-12-02T20:40:53.696Z,19.33
2017-12-02T20:43:21.316Z,23.07
2017-12-02T20:45:48.983Z,18.30
2017-12-02T20:48:16.576Z,21.17
2017-12-02T20:50:44.185Z,21.90
2017-12-02T20:53:11.831Z,16.13
2017-12-02T20:55:39.528Z,15.60
2017-12-02T20:58:07.126Z,12.30
2017-12-02T21:00:34.759Z,10.10
2017-12-02T21:03:02.431Z,11.10
2017-12-02T21:05:30.807Z,13.33
2017-12-02T21:07:59.183Z,11.90
2017-12-02T21:10:26.783Z,12.17
2017-12-02T21:12:54.391Z,13.83
2017-12-02T21:15:22.064Z,11.90
2017-12-02T21:17:49.719Z,13.70
2017-12-02T21:20:17.384Z,10.93
2017-12-02T21:22:45.045Z,9.50
2017-12-02T21:25:12.661Z,13.87
2017-12-02T21:27:40.268Z,17.87
2017-12-02T21:30:07.931Z,8.27
2017-12-02T21:32:35.516Z,14.73
2017-12-02T21:35:03.979Z,14.57
2017-12-02T21:37:31.559Z,16.13
2017-12-02T21:39:59.927Z,13.30
2017-12-02T21:42:27.579Z,17.87
2017-12-02T21:44:55.160Z,11.40
2017-12-02T21:47:23.611Z,15.27
2017-12-02T21:49:51.184Z,13.40
2017-12-02T21:52:18.839Z,14.70
2017-12-02T21:54:46.517Z,17.37
2017-12-02T21:57:14.125Z,13.13
2017-12-02T21:59:41.728Z,17.63
2017-12-02T22:02:09.344Z,15.10
2017-12-02T22:04:36.954Z,12.80
2017-12-02T22:07:04.632Z,15.17
2017-12-02T22:09:32.988Z,15.30
2017-12-02T22:12:00.592Z,15.03
2017-12-02T22:14:28.213Z,23.20
2017-12-02T22:16:55.823Z,16.70
2017-12-02T22:19:23.400Z,15.93
2017-12-02T22:21:51.012Z,18.47
2017-12-02T22:24:18.668Z,18.87
2017-12-02T22:26:46.327Z,17.00
2017-12-02T22:29:13.911Z,19.73
2017-12-02T22:31:42.372Z,19.73
2017-12-02T22:34:10.031Z,17.50
2017-12-02T22:36:37.691Z,21.70
2017-12-02T22:39:05.294Z,20.77
2017-12-02T22:41:32.915Z,15.80
2017-12-02T22:44:01.395Z,19.80
2017-12-02T22:46:29.072Z,18.60
2017-12-02T22:48:56.733Z,20.03
2017-12-02T22:51:24.319Z,22.87
2017-12-02T22:53:51.939Z,23.93
2017-12-02T22:56:19.523Z,24.37
2017-12-02T22:58:47.986Z,18.13
2017-12-02T23:01:15.651Z,21.87
2017-12-02T23:03:43.314Z,19.87
2017-12-02T23:06:10.904Z,22.47
2017-12-02T23:08:39.365Z,21.23
2017-12-02T23:11:06.955Z,21.40
2017-12-02T23:13:34.548Z,20.13
2017-12-02T23:16:02.159Z,21.33
2017-12-02T23:18:30.502Z,23.37
2017-12-02T23:20:58.115Z,16.80
2017-12-02T23:23:26.462Z,18.80
2017-12-02T23:25:54.076Z,25.90
2017-12-02T23:28:21.673Z,23.50
2017-12-02T23:30:49.282Z,22.27
2017-12-02T23:33:16.907Z,26.27
2017-12-02T23:35:44.636Z,19.67
2017-12-02T23:38:12.330Z,18.93
2017-12-02T23:40:39.943Z,21.10
2017-12-02T23:43:07.559Z,23.57
2017-12-02T23:45:35.172Z,22.90
2017-12-02T23:48:02.778Z,24.03
2017-12-02T23:50:30.443Z,23.50
2017-12-02T23:52:58.108Z,23.80
2017-12-02T23:55:25.693Z,22.50
2017-12-02T23:57:54.157Z,18.67
